Time;durP1;ratioP1;P1;durP2;ratioP2;P2;SDS_P1;SDS_P2;PMS_P1;PMS_P2;Temp;Humidity;BMP_temperature;BMP_pressure;BME280_temperature;BME280_humidity;BME280_pressure;Samples;Min_cycle;Max_cycle;Signal;HPM_P1;HPM_P2
2022/05/03 00:00:16;;;;;;;6.82;4.53;;;;;;;12.29;72.56;100609.41;5042328;28;20037;-75
2022/05/03 00:02:48;;;;;;;9.10;5.00;;;;;;;12.42;72.87;100645.31;5036194;28;20152;-75
2022/05/03 00:05:43;;;;;;;17.80;5.70;;;;;;;12.00;73.24;100602.50;5036876;28;20052;-75
2022/05/03 00:08:57;;;;;;;6.55;4.68;;;;;;;11.77;73.84;100607.75;5049212;28;20092;-75
2022/05/03 00:12:05;;;;;;;9.60;5.82;;;;;;;11.59;73.71;100604.31;5040730;28;20044;-76
2022/05/03 00:14:37;;;;;;;8.35;5.72;;;;;;;11.34;74.62;100611.31;5048824;28;20041;-74
2022/05/03 00:17:04;;;;;;;10.20;4.93;;;;;;;11.32;76.25;100630.59;5028105;28;20032;-74
2022/05/03 00:19:30;;;;;;;9.13;5.25;;;;;;;11.09;77.16;100599.91;5040801;28;20016;-74
2022/05/03 00:21:59;;;;;;;12.32;5.00;;;;;;;10.90;79.02;100640.16;5053634;28;20086;-74
2022/05/03 00:24:29;;;;;;;11.57;5.80;;;;;;;10.94;79.32;100652.41;5048849;28;20522;-74
2022/05/03 00:27:25;;;;;;;9.55;5.65;;;;;;;10.59;79.65;100605.09;5057612;28;20039;-74
2022/05/03 00:29:59;;;;;;;8.35;6.20;;;;;;;10.54;79.97;100623.44;5060920;28;20029;-74
2022/05/03 00:32:31;;;;;;;8.65;5.93;;;;;;;10.55;79.85;100606.81;5035062;28;20120;-75
2022/05/03 00:35:01;;;;;;;11.45;5.95;;;;;;;10.66;79.22;100617.34;5051695;28;20056;-74
2022/05/03 00:37:52;;;;;;;8.88;6.10;;;;;;;10.59;79.58;100607.72;5055402;28;20068;-75
2022/05/03 00:40:22;;;;;;;8.85;5.82;;;;;;;10.28;80.53;100604.94;5058597;28;20052;-74
2022/05/03 00:43:10;;;;;;;15.60;6.75;;;;;;;10.11;80.72;100595.25;5048950;28;20072;-74
2022/05/03 00:46:00;;;;;;;8.10;6.45;;;;;;;10.30;80.97;100618.94;5041363;28;20088;-74
2022/05/03 00:48:39;;;;;;;12.93;8.13;;;;;;;10.53;79.92;100614.66;5032764;28;20037;-75
2022/05/03 00:51:45;;;;;;;11.93;5.63;;;;;;;10.42;80.37;100605.00;5050819;28;20147;-75
2022/05/03 00:54:38;;;;;;;11.05;6.32;;;;;;;10.22;80.94;100611.00;4995131;28;22467;-74
2022/05/03 00:57:16;;;;;;;9.88;7.22;;;;;;;10.31;81.14;100615.47;5053637;28;20047;-74
2022/05/03 01:00:01;;;;;;;15.35;7.47;;;;;;;10.19;81.45;100618.88;5031322;28;20063;-74
2022/05/03 01:03:02;;;;;;;15.35;7.00;;;;;;;10.20;81.13;100606.63;5059757;28;20036;-74
2022/05/03 01:06:23;;;;;;;9.88;6.50;;;;;;;10.07;82.00;100611.81;4990255;28;20117;-75
2022/05/03 01:09:01;;;;;;;10.95;6.47;;;;;;;10.08;82.02;100615.31;4980474;28;20070;-74
2022/05/03 01:11:42;;;;;;;14.80;7.53;;;;;;;10.23;82.75;100649.50;5054634;28;20518;-73
2022/05/03 01:14:26;;;;;;;12.98;7.10;;;;;;;10.06;82.42;100596.06;5037126;28;20044;-73
2022/05/03 01:17:02;;;;;;;9.90;6.43;;;;;;;10.17;82.08;100604.00;5049046;28;20071;-75
2022/05/03 01:19:34;;;;;;;13.95;7.55;;;;;;;10.06;82.54;100604.81;5053112;28;20032;-75
2022/05/03 01:22:51;;;;;;;9.35;6.45;;;;;;;9.87;83.29;100600.34;5026295;28;20095;-75
2022/05/03 01:25:45;;;;;;;12.68;8.95;;;;;;;10.09;83.32;100635.41;5050516;28;20091;-74
2022/05/03 01:28:32;;;;;;;10.45;6.78;;;;;;;10.13;83.80;100648.53;5070029;28;20514;-76
2022/05/03 01:31:03;;;;;;;10.25;6.85;;;;;;;9.93;83.60;100596.03;5074679;28;20665;-75
2022/05/03 01:33:45;;;;;;;9.75;6.80;;;;;;;10.09;83.24;100596.09;5074165;28;20036;-75
2022/05/03 01:36:23;;;;;;;12.98;7.03;;;;;;;10.17;83.60;100632.84;5078104;28;20059;-75
2022/05/03 01:39:02;;;;;;;8.98;6.22;;;;;;;10.03;83.39;100589.06;5078983;28;20044;-74
2022/05/03 01:41:51;;;;;;;15.15;7.07;;;;;;;10.13;84.04;100630.19;5064259;28;20041;-75
2022/05/03 01:44:53;;;;;;;11.45;7.95;;;;;;;9.94;84.20;100607.38;5076455;28;20040;-74
2022/05/03 01:47:31;;;;;;;11.48;7.82;;;;;;;10.10;83.66;100600.47;5082477;28;20052;-74
2022/05/03 01:50:20;;;;;;;13.00;8.27;;;;;;;10.41;82.64;100643.47;5082509;28;20020;-78
2022/05/03 01:52:59;;;;;;;12.60;7.07;;;;;;;10.14;83.14;100602.25;5078844;28;20024;-77
2022/05/03 01:55:53;;;;;;;13.75;7.68;;;;;;;9.81;84.34;100593.34;5071908;28;20044;-75
2022/05/03 01:58:42;;;;;;;10.43;7.70;;;;;;;10.03;83.75;100598.69;5075692;28;20051;-74
2022/05/03 02:01:23;;;;;;;9.98;6.43;;;;;;;9.98;83.58;100590.81;5074781;28;20079;-75
2022/05/03 02:04:27;;;;;;;9.07;6.88;;;;;;;10.03;83.65;100606.56;5068205;28;20039;-75
2022/05/03 02:07:04;;;;;;;11.07;6.63;;;;;;;10.05;83.69;100586.47;5070762;28;20033;-75
2022/05/03 02:09:48;;;;;;;11.20;6.63;;;;;;;10.18;82.90;100575.16;5067361;28;20048;-75
2022/05/03 02:12:15;;;;;;;13.40;7.05;;;;;;;10.42;83.05;100629.50;5083239;28;20036;-75
2022/05/03 02:14:53;;;;;;;10.60;6.50;;;;;;;10.03;83.49;100593.44;5064521;28;20037;-75
2022/05/03 02:17:52;;;;;;;11.18;7.30;;;;;;;10.28;83.70;100628.53;5081065;28;20123;-74
2022/05/03 02:20:46;;;;;;;15.57;8.85;;;;;;;10.06;84.44;100636.28;5079259;28;20047;-75
2022/05/03 02:23:50;;;;;;;16.88;8.40;;;;;;;10.15;83.20;100583.00;5050412;28;20036;-74
2022/05/03 02:26:38;;;;;;;11.65;7.13;;;;;;;10.35;83.54;100635.59;5075869;28;20044;-75
2022/05/03 02:29:30;;;;;;;18.10;7.43;;;;;;;9.95;84.22;100596.03;5059879;28;20028;-75
2022/05/03 02:32:13;;;;;;;10.68;7.43;;;;;;;10.09;83.95;100611.81;5039996;28;20028;-75
2022/05/03 02:34:58;;;;;;;10.27;7.43;;;;;;;9.68;84.97;100594.13;5066810;28;20038;-75
2022/05/03 02:37:43;;;;;;;10.18;7.07;;;;;;;9.94;84.97;100629.22;5070450;28;20049;-76
2022/05/03 02:40:13;;;;;;;16.45;8.02;;;;;;;9.89;84.84;100617.84;5056250;28;20045;-75
2022/05/03 02:42:40;;;;;;;13.02;8.27;;;;;;;9.88;84.54;100588.97;5044954;28;20105;-73
2022/05/03 02:45:44;;;;;;;12.32;7.63;;;;;;;9.60;85.58;100587.94;5084242;28;20673;-73
2022/05/03 02:48:20;;;;;;;14.70;9.02;;;;;;;9.87;85.07;100592.47;5077573;28;20036;-74
2022/05/03 02:51:03;;;;;;;11.63;8.25;;;;;;;9.72;85.09;100578.44;5064648;28;20555;-73
2022/05/03 02:53:37;;;;;;;14.77;8.07;;;;;;;9.80;85.34;100586.31;5070457;28;20058;-74
2022/05/03 02:56:15;;;;;;;11.02;8.80;;;;;;;9.68;85.36;100587.13;5065735;28;20023;-74
2022/05/03 02:59:01;;;;;;;12.63;8.13;;;;;;;9.75;84.92;100584.56;5081832;28;20098;-74
2022/05/03 03:02:17;;;;;;;9.50;8.45;;;;;;;9.70;85.39;100582.78;5072922;28;20040;-73
2022/05/03 03:05:20;;;;;;;14.82;9.75;;;;;;;9.86;85.66;100625.69;4999456;28;20042;-76
2022/05/03 03:07:58;;;;;;;11.63;8.25;;;;;;;9.70;84.92;100589.78;5009812;28;20155;-73
2022/05/03 03:10:57;;;;;;;15.07;8.85;;;;;;;9.43;nan;100579.97;4994807;28;20080;-74
2022/05/03 03:14:04;;;;;;;12.77;8.25;;;;;;;9.47;86.13;100587.00;5045342;28;20044;-75
2022/05/03 03:16:39;;;;;;;14.65;9.35;;;;;;;9.95;85.67;100632.75;5079287;28;20040;-75
2022/05/03 03:19:25;;;;;;;15.10;8.98;;;;;;;9.93;85.13;100616.13;5068499;28;20072;-74
2022/05/03 03:22:02;;;;;;;13.10;9.40;;;;;;;10.08;85.12;100617.94;5080676;28;20043;-75
2022/05/03 03:24:34;;;;;;;12.85;9.93;;;;;;;9.61;85.28;100584.47;5064062;28;20037;-74
2022/05/03 03:27:05;;;;;;;13.23;10.43;;;;;;;9.61;85.91;100592.31;5066301;28;21642;-75
2022/05/03 03:30:14;;;;;;;11.20;9.18;;;;;;;9.59;86.02;100583.56;5074162;28;20047;-76
2022/05/03 03:32:56;;;;;;;14.80;9.50;;;;;;;9.52;86.02;100586.13;5078823;28;20037;-74
2022/05/03 03:35:26;;;;;;;13.15;8.52;;;;;;;9.74;86.02;100617.75;5066625;28;20040;-74
2022/05/03 03:37:52;;;;;;;12.90;8.65;;;;;;;9.77;86.35;100630.00;5089415;28;20115;-77
2022/05/03 03:40:20;;;;;;;9.73;8.20;;;;;;;9.57;86.49;100596.66;5070706;28;20036;-74
2022/05/03 03:42:55;;;;;;;14.80;9.80;;;;;;;9.48;86.07;100584.38;5058256;28;20044;-74
2022/05/03 03:45:21;;;;;;;12.75;9.65;;;;;;;9.52;86.40;100594.00;5080809;28;20044;-73
2022/05/03 03:47:48;;;;;;;13.40;8.23;;;;;;;9.56;86.16;100586.19;5075657;28;20048;-74
2022/05/03 03:50:16;;;;;;;13.80;9.45;;;;;;;9.54;86.09;100580.06;5086262;28;20075;-74
2022/05/03 03:52:46;;;;;;;11.27;8.40;;;;;;;9.61;85.77;100581.84;5068848;28;20380;-75
2022/05/03 03:55:13;;;;;;;9.93;8.65;;;;;;;9.62;85.81;100588.81;5068315;28;20040;-74
2022/05/03 03:58:00;;;;;;;11.18;8.02;;;;;;;10.09;85.17;100636.31;5050137;28;20048;-75
2022/05/03 04:00:28;;;;;;;12.45;8.55;;;;;;;9.60;85.84;100601.94;5066270;28;20524;-75
2022/05/03 04:02:53;;;;;;;9.82;8.20;;;;;;;9.84;85.36;100624.78;5081588;28;20082;-76
2022/05/03 04:05:23;;;;;;;14.27;9.30;;;;;;;9.89;85.64;100632.69;5084329;28;20075;-74
2022/05/03 04:07:51;;;;;;;14.20;7.88;;;;;;;9.97;85.19;100635.34;5073132;28;20024;-75
2022/05/03 04:10:22;;;;;;;11.55;9.15;;;;;;;9.68;85.67;100601.97;5073557;28;20497;-75
2022/05/03 04:12:49;;;;;;;14.85;7.85;;;;;;;9.40;86.20;100600.91;5072142;28;20380;-74
2022/05/03 04:15:16;;;;;;;13.18;9.73;;;;;;;9.40;86.23;100601.78;5068073;28;20069;-74
2022/05/03 04:17:43;;;;;;;17.10;9.82;;;;;;;9.55;85.98;100601.00;5077754;28;20052;-75
2022/05/03 04:20:10;;;;;;;12.60;8.80;;;;;;;9.76;85.32;100597.66;5049076;28;20113;-75
2022/05/03 04:22:36;;;;;;;10.75;8.20;;;;;;;9.59;85.42;100601.91;5076292;28;20032;-75
2022/05/03 04:25:04;;;;;;;16.35;9.07;;;;;;;10.01;83.82;100600.44;5058533;28;20169;-76
2022/05/03 04:27:32;;;;;;;16.80;9.25;;;;;;;9.90;84.48;100592.50;5077074;28;20051;-77
2022/05/03 04:30:00;;;;;;;13.38;8.80;;;;;;;10.20;83.62;100598.78;5073839;28;20068;-76
2022/05/03 04:32:34;;;;;;;12.38;8.38;;;;;;;10.25;83.99;100633.75;5080082;28;20051;-76
2022/05/03 04:34:59;;;;;;;;;;;;;;;10.05;84.50;100608.31;5055940;28;20067;-75
2022/05/03 04:37:26;;;;;;;15.75;10.85;;;;;;;10.28;84.15;100605.84;5064155;28;19919;-76
2022/05/03 04:39:52;;;;;;;14.20;9.07;;;;;;;10.46;83.58;100606.78;5062917;28;20120;-77
2022/05/03 04:42:18;;;;;;;15.30;9.60;;;;;;;10.41;82.98;100603.25;5076838;28;20394;-76
2022/05/03 04:44:43;;;;;;;17.40;10.00;;;;;;;10.49;82.12;100614.69;5068797;28;20040;-74
2022/05/03 04:47:09;;;;;;;12.90;9.90;;;;;;;10.66;82.47;100648.84;5077920;28;20124;-75
2022/05/03 04:49:59;;;;;;;13.02;10.43;;;;;;;10.53;82.46;100609.41;5077902;28;20020;-75
2022/05/03 04:52:29;;;;;;;18.80;10.18;;;;;;;10.60;82.44;100610.31;5081674;28;20046;-78
2022/05/03 04:54:55;;;;;;;14.48;8.90;;;;;;;10.09;83.42;100589.13;5071364;28;20048;-75
2022/05/03 04:57:20;;;;;;;12.95;9.07;;;;;;;10.49;82.69;100612.91;5047889;28;20060;-75
2022/05/03 04:59:46;;;;;;;18.23;11.07;;;;;;;10.71;82.48;100599.84;5074122;28;20425;-75
2022/05/03 05:02:11;;;;;;;19.90;11.35;;;;;;;10.75;82.12;100606.88;5082260;28;20028;-75
2022/05/03 05:04:37;;;;;;;16.05;9.30;;;;;;;10.59;81.85;100608.56;5049395;28;20027;-75
2022/05/03 05:07:03;;;;;;;23.02;11.68;;;;;;;10.70;82.17;100608.59;5052745;28;20043;-76
2022/05/03 05:09:29;;;;;;;24.58;10.05;;;;;;;10.82;82.14;100642.75;5072364;28;20048;-77
2022/05/03 05:11:54;;;;;;;21.20;10.05;;;;;;;10.87;81.40;100603.41;5078190;28;20048;-75
2022/05/03 05:14:22;;;;;;;17.27;8.57;;;;;;;10.88;81.91;100652.38;5075618;28;20044;-75
2022/05/03 05:16:50;;;;;;;14.48;10.48;;;;;;;10.56;82.10;100604.19;5065943;28;20016;-75
2022/05/03 05:19:20;;;;;;;16.30;10.90;;;;;;;10.76;82.56;100654.09;5042528;28;20051;-75
2022/05/03 05:21:46;;;;;;;11.32;9.45;;;;;;;10.63;82.20;100605.09;5079515;28;20400;-75
2022/05/03 05:24:27;;;;;;;16.38;9.70;;;;;;;11.26;80.83;100651.56;5084215;28;20446;-74
2022/05/03 05:26:56;;;;;;;12.18;9.55;;;;;;;11.24;79.89;100606.03;5080092;28;20048;-75
2022/05/03 05:29:25;;;;;;;16.42;9.52;;;;;;;11.25;79.95;100610.44;5060840;28;20071;-74
2022/05/03 05:31:54;;;;;;;14.75;9.25;;;;;;;11.27;79.46;100613.94;5084946;28;20123;-74
2022/05/03 05:34:33;;;;;;;18.48;9.70;;;;;;;11.68;78.95;100615.66;5071221;28;20049;-75
2022/05/03 05:40:20;;;;;;;19.38;11.00;;;;;;;11.40;78.86;100613.94;5054746;28;20371;-74
2022/05/03 05:42:49;;;;;;;35.47;27.42;;;;;;;11.39;80.07;100614.81;5056888;28;20045;-75
2022/05/03 05:48:42;;;;;;;18.98;11.60;;;;;;;11.74;78.82;100627.06;5057835;28;20040;-77
2022/05/03 05:54:31;;;;;;;29.63;17.15;;;;;;;11.90;77.79;100633.19;5059141;28;20130;-77
2022/05/03 06:00:25;;;;;;;29.25;21.02;;;;;;;11.80;76.62;100621.78;5041317;28;20108;-78
2022/05/03 06:02:53;;;;;;;14.88;9.88;;;;;;;11.87;76.36;100624.41;5040214;28;20053;-77
2022/05/03 06:05:21;;;;;;;17.90;12.20;;;;;;;12.49;75.78;100659.34;5025209;28;20102;-78
2022/05/03 06:07:49;;;;;;;17.17;10.95;;;;;;;12.10;76.12;100624.38;5042177;28;20029;-77
2022/05/03 06:10:16;;;;;;;14.57;10.05;;;;;;;12.27;75.60;100625.22;5023994;28;20057;-77
2022/05/03 06:12:42;;;;;;;13.77;7.93;;;;;;;12.44;74.79;100636.53;5043051;28;20507;-78
2022/05/03 06:15:21;;;;;;;16.65;8.90;;;;;;;12.47;73.63;100630.38;5048522;28;20136;-77
2022/05/03 06:17:48;;;;;;;10.45;7.78;;;;;;;12.76;73.27;100656.59;5043207;28;20085;-77
2022/05/03 06:20:13;;;;;;;21.92;11.65;;;;;;;12.93;72.90;100630.16;5033919;28;20059;-77
2022/05/03 06:22:39;;;;;;;32.65;11.85;;;;;;;13.06;72.96;100630.94;5048174;28;20033;-77
2022/05/03 06:25:09;;;;;;;21.95;8.70;;;;;;;13.21;72.22;100637.88;5048093;28;20033;-77
2022/05/03 06:27:39;;;;;;;27.13;9.88;;;;;;;13.48;70.67;100671.94;5021683;28;20108;-77
2022/05/03 06:30:06;;;;;;;30.42;9.18;;;;;;;13.62;70.32;100666.56;5046934;28;20161;-77
2022/05/03 06:32:51;;;;;;;9.00;6.25;;;;;;;13.52;67.50;100654.34;5050656;28;20052;-77
2022/05/03 06:35:17;;;;;;;11.13;7.32;;;;;;;13.42;69.30;100632.47;5047043;28;20128;-78
2022/05/03 06:37:45;;;;;;;14.43;6.65;;;;;;;13.65;67.24;100636.66;5036196;28;20061;-78
2022/05/03 06:40:51;;;;;;;9.88;7.35;;;;;;;13.75;68.30;100640.09;5024301;28;20037;-77
2022/05/03 06:43:21;;;;;;;15.15;7.75;;;;;;;13.93;66.27;100679.50;5051729;28;20047;-77
2022/05/03 06:45:47;;;;;;;16.90;7.72;;;;;;;13.65;65.99;100668.28;5044113;28;20048;-77
2022/05/03 06:48:15;;;;;;;9.98;7.22;;;;;;;13.54;68.66;100678.94;5057425;28;20136;-77
2022/05/03 06:50:42;;;;;;;13.43;7.20;;;;;;;13.37;70.22;100654.47;5046676;28;20095;-77
2022/05/03 06:53:07;;;;;;;16.70;7.75;;;;;;;13.78;66.94;100637.44;5055214;28;20057;-77
2022/05/03 06:55:35;;;;;;;14.73;7.78;;;;;;;13.91;65.92;100641.72;5021963;28;20032;-77
2022/05/03 06:58:01;;;;;;;15.65;5.97;;;;;;;14.01;65.31;100645.13;5031041;28;20053;-77
2022/05/03 07:00:28;;;;;;;16.05;7.30;;;;;;;14.12;65.14;100688.09;5055617;28;20091;-78
2022/05/03 07:02:54;;;;;;;17.27;8.05;;;;;;;13.19;66.38;100645.78;5035679;28;20059;-77
2022/05/03 07:05:19;;;;;;;18.13;10.02;;;;;;;13.44;64.70;100640.38;5046841;28;20049;-77
2022/05/03 07:07:46;;;;;;;18.90;8.02;;;;;;;13.82;64.73;100653.22;5048186;28;20017;-76
2022/05/03 07:10:12;;;;;;;14.88;7.80;;;;;;;13.44;65.47;100648.28;5034545;28;20084;-77
2022/05/03 07:12:39;;;;;;;18.83;6.95;;;;;;;13.41;67.17;100658.84;5046703;28;20369;-77
2022/05/03 07:15:15;;;;;;;11.52;7.45;;;;;;;14.13;63.03;100692.47;5050834;28;20152;-77
2022/05/03 07:23:11;;;;;;;13.15;8.25;;;;;;;13.80;62.39;100652.34;5047994;28;20047;-77
2022/05/03 07:25:38;;;;;;;15.38;8.90;;;;;;;14.04;64.25;100656.50;5050527;28;20016;-77
2022/05/03 07:28:05;;;;;;;12.70;7.97;;;;;;;14.27;61.81;100692.34;5028468;28;20055;-77
2022/05/03 07:30:56;;;;;;;13.35;7.95;;;;;;;13.72;61.37;100646.28;5047080;28;20036;-77
2022/05/03 07:33:36;;;;;;;8.88;5.13;;;;;;;13.95;61.01;100669.78;5026363;28;20052;-77
2022/05/03 07:36:05;;;;;;;9.20;5.38;;;;;;;13.47;62.46;100648.25;5053897;28;20037;-76
2022/05/03 07:38:30;;;;;;;7.72;4.82;;;;;;;13.83;61.11;100652.31;5048201;28;20045;-77
2022/05/03 07:40:57;;;;;;;7.30;4.20;;;;;;;13.92;63.04;100685.66;5036598;28;20103;-77
2022/05/03 07:43:25;;;;;;;7.85;5.25;;;;;;;14.28;61.85;100700.25;5063396;28;20104;-77
2022/05/03 07:46:00;;;;;;;11.02;5.43;;;;;;;13.58;61.22;100650.78;5061938;28;20116;-78
2022/05/03 07:48:26;;;;;;;9.38;4.97;;;;;;;14.05;59.88;100696.97;5048263;28;20037;-77
2022/05/03 07:50:53;;;;;;;20.73;6.28;;;;;;;14.10;61.28;100693.38;5023333;28;20040;-78
2022/05/03 07:53:20;;;;;;;6.45;4.47;;;;;;;14.15;60.35;100695.97;5048772;28;20039;-77
2022/05/03 07:55:50;;;;;;;8.48;4.07;;;;;;;14.12;58.91;100662.59;5061481;28;20029;-77
2022/05/03 07:58:24;;;;;;;13.30;5.28;;;;;;;14.59;58.98;100675.31;5053659;28;20036;-77
2022/05/03 08:00:50;;;;;;;12.25;4.45;;;;;;;14.27;61.64;100679.16;5042602;28;20052;-78
2022/05/03 08:03:17;;;;;;;6.45;3.97;;;;;;;14.40;59.67;100664.94;5043831;28;20033;-78
2022/05/03 08:05:44;;;;;;;8.55;4.88;;;;;;;14.77;59.29;100673.31;5051972;28;20043;-78
2022/05/03 08:08:10;;;;;;;14.02;3.72;;;;;;;14.70;59.81;100695.41;5044236;28;20029;-77
2022/05/03 08:10:37;;;;;;;18.98;4.82;;;;;;;14.91;58.39;100702.19;5039122;28;20119;-78
2022/05/03 08:13:04;;;;;;;16.05;4.00;;;;;;;14.85;57.67;100670.56;5042682;28;20047;-78
2022/05/03 08:15:51;;;;;;;13.98;3.72;;;;;;;14.59;57.24;100717.56;5054308;28;20049;-76
2022/05/03 08:18:19;;;;;;;11.93;3.75;;;;;;;14.61;57.31;100657.66;5049999;28;20052;-76
2022/05/03 08:20:45;;;;;;;8.02;3.58;;;;;;;14.28;57.52;100660.66;5052298;28;20084;-77
2022/05/03 08:23:20;;;;;;;15.85;3.58;;;;;;;14.50;58.15;100669.19;5040000;28;20473;-77
2022/05/03 08:25:46;;;;;;;6.68;3.67;;;;;;;14.46;59.29;100715.00;5053876;28;20055;-77
2022/05/03 08:28:13;;;;;;;7.13;3.70;;;;;;;14.88;58.01;100685.47;5042977;28;20045;-77
2022/05/03 08:30:41;;;;;;;17.67;9.35;;;;;;;14.89;59.26;100705.72;5053914;28;20044;-78
2022/05/03 08:33:07;;;;;;;11.98;6.60;;;;;;;14.51;58.51;100689.41;5061454;28;20041;-78
2022/05/03 08:35:52;;;;;;;17.35;7.75;;;;;;;15.03;57.16;100702.88;5085950;28;20043;-76
2022/05/03 08:43:52;;;;;;;8.57;4.40;;;;;;;14.79;55.36;100649.47;5086733;28;20039;-78
2022/05/03 08:46:33;;;;;;;19.38;10.35;;;;;;;15.89;52.91;100686.59;5050199;28;20082;-76
2022/05/03 08:49:04;;;;;;;11.65;3.92;;;;;;;15.16;55.10;100655.13;5068782;28;20036;-78
2022/05/03 08:51:31;;;;;;;7.97;4.35;;;;;;;15.48;54.24;100650.25;5047813;28;20047;-77
2022/05/03 08:54:00;;;;;;;7.43;4.40;;;;;;;16.00;53.39;100679.34;5091136;28;20055;-76
2022/05/03 08:56:26;;;;;;;10.23;3.30;;;;;;;15.66;55.13;100662.28;5072021;28;20044;-77
2022/05/03 08:58:55;;;;;;;4.88;3.65;;;;;;;15.51;56.09;100680.16;5081503;28;20032;-77
2022/05/03 09:01:21;;;;;;;9.38;5.07;;;;;;;15.26;56.14;100641.75;5084588;28;20139;-77
2022/05/03 09:03:47;;;;;;;9.43;5.55;;;;;;;15.86;53.34;100685.78;5052145;28;20099;-77
2022/05/03 09:06:14;;;;;;;8.98;4.78;;;;;;;15.66;53.40;100639.31;5079004;28;20561;-77
2022/05/03 09:08:41;;;;;;;8.77;4.50;;;;;;;15.18;53.89;100636.59;5066298;28;20037;-78
2022/05/03 09:11:15;;;;;;;7.45;3.95;;;;;;;15.59;54.22;100690.59;5082450;28;20046;-77
2022/05/03 09:13:45;;;;;;;20.23;4.55;;;;;;;15.48;54.31;100666.13;5088509;28;20034;-77
2022/05/03 09:16:15;;;;;;;8.18;3.08;;;;;;;15.08;54.01;100646.44;5082368;28;20083;-78
2022/05/03 09:18:43;;;;;;;11.05;4.10;;;;;;;15.54;54.80;100651.00;5067993;28;20042;-78
2022/05/03 09:24:11;;;;;;;6.03;3.42;;;;;;;15.14;51.94;100680.69;5073349;28;20502;-77
2022/05/03 09:26:40;;;;;;;6.25;3.42;;;;;;;15.23;52.80;100649.75;5086242;28;20043;-78
2022/05/03 09:29:12;;;;;;;5.32;3.70;;;;;;;15.31;52.70;100635.53;5048414;28;20096;-77
2022/05/03 09:31:42;;;;;;;5.75;3.35;;;;;;;15.78;54.46;100670.03;5085109;28;20067;-77
2022/05/03 09:34:27;;;;;;;9.05;4.75;;;;;;;15.27;52.55;100678.75;5066833;28;20040;-77
2022/05/03 09:37:00;;;;;;;8.68;3.55;;;;;;;15.14;53.67;100630.47;5084872;28;20479;-78
2022/05/03 09:39:35;;;;;;;13.10;5.47;;;;;;;15.72;54.33;100633.97;5067078;28;20043;-78
2022/05/03 09:42:18;;;;;;;6.22;3.83;;;;;;;15.94;53.30;100625.63;5077470;28;20043;-77
2022/05/03 09:44:54;;;;;;;;;;;;;;;16.17;52.03;100649.91;5044235;28;20042;-76
2022/05/03 09:47:25;;;;;;;8.80;4.90;;;;;;;16.01;51.58;100622.88;5073875;28;19920;-76
2022/05/03 09:49:53;;;;;;;10.77;3.92;;;;;;;16.02;52.74;100624.59;5064251;28;20021;-77
2022/05/03 09:52:36;;;;;;;13.60;3.75;;;;;;;16.33;52.48;100666.38;5084520;28;20051;-79
2022/05/03 09:55:09;;;;;;;10.85;2.80;;;;;;;16.13;50.75;100629.72;5086660;28;20039;-76
2022/05/03 09:57:37;;;;;;;6.80;3.00;;;;;;;15.77;47.65;100612.72;5071675;28;20107;-77
2022/05/03 10:00:20;;;;;;;5.55;3.35;;;;;;;16.20;47.26;100623.38;5070601;28;20198;-77
2022/05/03 10:02:58;;;;;;;3.60;2.07;;;;;;;16.06;49.15;100646.59;5069002;28;20052;-77
2022/05/03 10:05:28;;;;;;;5.80;2.88;;;;;;;16.10;50.11;100658.88;5088530;28;20044;-76
2022/05/03 10:07:54;;;;;;;7.40;2.10;;;;;;;15.71;51.03;100615.47;5082044;28;20028;-77
2022/05/03 10:10:23;;;;;;;6.07;2.58;;;;;;;15.94;47.33;100618.56;5089276;28;20060;-77
2022/05/03 10:12:51;;;;;;;4.65;2.53;;;;;;;16.61;46.72;100656.09;5090851;28;23191;-77
2022/05/03 10:21:17;;;;;;;15.00;3.13;;;;;;;16.08;49.86;100610.38;5073332;28;20052;-78
2022/05/03 10:24:14;;;;;;;14.20;3.50;;;;;;;16.09;50.62;100617.41;5047911;28;20036;-78
2022/05/03 10:27:01;;;;;;;14.98;3.33;;;;;;;16.33;48.91;100623.13;5085117;28;20051;-78
2022/05/03 10:29:35;;;;;;;10.73;2.95;;;;;;;16.75;51.71;100596.63;5072776;28;20051;-78
2022/05/03 10:32:07;;;;;;;9.13;3.20;;;;;;;17.27;47.78;100633.41;5062671;28;20455;-78
2022/05/03 10:34:45;;;;;;;11.75;3.30;;;;;;;17.33;43.32;100632.41;5067076;28;20029;-76
2022/05/03 10:37:46;;;;;;;10.00;4.88;;;;;;;17.95;44.31;100642.34;5044495;28;20484;-78
2022/05/03 10:40:15;;;;;;;8.35;3.63;;;;;;;18.09;44.77;100626.91;5050027;28;20052;-77
2022/05/03 10:42:41;;;;;;;11.02;6.20;;;;;;;17.95;42.88;100599.88;5023227;28;20500;-77
2022/05/03 10:45:10;;;;;;;3.22;1.92;;;;;;;16.96;41.33;100590.00;5027468;28;20041;-77
2022/05/03 10:47:59;;;;;;;10.38;4.40;;;;;;;17.99;41.61;100635.19;5045091;28;20033;-77
2022/05/03 10:50:31;;;;;;;5.72;3.08;;;;;;;17.18;44.32;100595.66;5045156;28;20425;-77
2022/05/03 10:52:59;;;;;;;8.68;3.03;;;;;;;17.32;44.52;100580.25;5047893;28;20025;-78
2022/05/03 10:55:33;;;;;;;15.02;2.78;;;;;;;17.39;45.13;100624.28;5043191;28;20029;-78
2022/05/03 10:58:29;;;;;;;10.68;5.60;;;;;;;17.50;44.79;100577.16;5038765;28;20041;-77
2022/05/03 11:01:20;;;;;;;10.85;5.25;;;;;;;17.36;44.21;100597.00;5026294;28;20127;-78
2022/05/03 11:03:58;;;;;;;11.13;3.47;;;;;;;16.98;44.84;100573.16;5050945;28;20107;-78
2022/05/03 11:06:25;;;;;;;12.43;5.13;;;;;;;17.22;44.04;100573.44;5013549;28;20048;-77
2022/05/03 11:11:53;;;;;;;10.07;5.95;;;;;;;18.33;42.79;100596.16;5042841;28;20052;-78
2022/05/03 11:14:21;;;;;;;7.97;2.42;;;;;;;17.75;42.28;100588.88;5043550;28;20120;-77
2022/05/03 11:16:50;;;;;;;15.90;2.50;;;;;;;16.88;41.87;100561.03;5046121;28;20379;-77
2022/05/03 11:19:38;;;;;;;6.68;1.80;;;;;;;17.45;40.84;100560.47;5037306;28;20119;-77
2022/05/03 11:22:20;;;;;;;15.38;4.18;;;;;;;17.11;42.98;100567.53;5049551;28;20025;-77
2022/05/03 11:25:07;;;;;;;7.85;3.88;;;;;;;16.86;43.33;100549.59;5032470;28;20051;-77
2022/05/03 11:27:33;;;;;;;8.32;5.63;;;;;;;17.52;41.00;100562.06;5049034;28;20033;-78
2022/05/03 11:30:08;;;;;;;9.13;5.53;;;;;;;18.87;42.66;100580.38;5048332;28;20060;-77
2022/05/03 11:32:37;;;;;;;19.38;6.18;;;;;;;19.08;40.75;100577.06;5014707;28;20037;-77
2022/05/03 11:35:06;;;;;;;10.65;5.32;;;;;;;18.95;40.49;100549.09;5039044;28;20400;-77
2022/05/03 11:37:47;;;;;;;12.15;5.00;;;;;;;18.27;42.95;100532.56;5074938;28;20032;-78
2022/05/03 11:40:23;;;;;;;14.32;6.00;;;;;;;18.52;42.38;100534.50;5040252;28;20071;-77
2022/05/03 11:42:50;;;;;;;5.75;2.47;;;;;;;17.49;40.44;100540.06;5072304;28;20078;-78
2022/05/03 11:45:17;;;;;;;8.18;4.25;;;;;;;18.12;41.02;100528.59;5037357;28;20036;-77
2022/05/03 11:47:47;;;;;;;11.07;4.20;;;;;;;18.56;43.41;100530.78;5068803;28;21146;-78
2022/05/03 11:55:58;;;;;;;5.97;3.25;;;;;;;19.03;41.59;100535.56;5040760;28;20533;-77
2022/05/03 11:56:00;;;;;;;6.57;3.30;;;;;;;18.17;40.31;100565.63;5061429;28;20034;-77
2022/05/03 11:58:29;;;;;;;28.73;2.90;;;;;;;17.34;42.35;100528.03;5044202;28;20051;-77
2022/05/03 12:00:57;;;;;;;4.07;2.40;;;;;;;18.24;40.99;100515.84;5054932;28;20040;-77
2022/05/03 12:03:24;;;;;;;5.90;2.70;;;;;;;18.45;41.74;100515.22;5066441;28;20127;-77
2022/05/03 12:06:02;;;;;;;5.47;2.40;;;;;;;18.11;40.24;100553.38;5035673;28;20053;-77
2022/05/03 12:08:29;;;;;;;9.32;2.60;;;;;;;18.18;40.14;100547.91;5067763;28;20070;-78
2022/05/03 12:10:56;;;;;;;4.53;2.63;;;;;;;17.86;40.73;100539.06;5032460;28;20028;-77
2022/05/03 12:13:22;;;;;;;4.18;2.50;;;;;;;18.05;40.74;100512.84;5060694;28;20387;-78
2022/05/03 12:15:57;;;;;;;4.95;3.05;;;;;;;18.47;40.09;100523.09;5064889;28;20044;-77
2022/05/03 12:18:30;;;;;;;10.90;3.30;;;;;;;17.76;40.68;100500.41;5043837;28;20037;-79
2022/05/03 12:21:01;;;;;;;2.85;1.92;;;;;;;17.98;40.11;100498.91;5065051;28;20054;-78
2022/05/03 12:24:03;;;;;;;5.97;2.50;;;;;;;18.29;40.83;100509.47;5065896;28;20122;-79
2022/05/03 12:26:51;;;;;;;9.80;2.58;;;;;;;18.37;43.22;100503.94;5059277;28;20535;-77
2022/05/03 12:29:17;;;;;;;7.90;3.78;;;;;;;17.63;41.35;100523.75;5063693;28;20112;-77
2022/05/03 12:31:45;;;;;;;5.78;1.98;;;;;;;17.21;40.85;100490.38;5062094;28;20036;-79
2022/05/03 12:34:32;;;;;;;7.97;2.65;;;;;;;17.95;39.87;100495.47;5048469;28;21079;-77
2022/05/03 12:37:03;;;;;;;3.97;2.13;;;;;;;17.78;40.54;100502.09;5045581;28;20051;-78